Time;durP1;ratioP1;P1;durP2;ratioP2;P2;SDS_P1;SDS_P2;PMS_P1;PMS_P2;Temp;Humidity;BMP_temperature;BMP_pressure;BME280_temperature;BME280_humidity;BME280_pressure;Samples;Min_cycle;Max_cycle;Signal;HPM_P1;HPM_P2
2021/01/14 00:00:38;;;;;;;32.63;17.25;;;;;;;-2.77;93.37;98443.63;1721256;82;20262;-69
2021/01/14 00:03:10;;;;;;;27.95;15.32;;;;;;;-2.80;93.42;98438.57;1733797;80;21607;-71
2021/01/14 00:05:39;;;;;;;28.67;16.32;;;;;;;-2.83;93.43;98450.52;1734985;82;21218;-72
2021/01/14 00:08:07;;;;;;;25.75;16.23;;;;;;;-2.85;93.52;98451.83;1739081;81;21159;-68
2021/01/14 00:10:36;;;;;;;23.98;14.93;;;;;;;-2.81;93.70;98448.80;1749780;80;21163;-70
2021/01/14 00:13:09;;;;;;;23.87;15.25;;;;;;;-2.84;93.47;98446.28;1741852;82;21266;-71
2021/01/14 00:15:37;;;;;;;24.55;14.80;;;;;;;-2.90;93.25;98452.77;1733306;82;22231;-70
2021/01/14 00:18:04;;;;;;;25.85;16.67;;;;;;;-2.98;93.15;98454.97;1738920;82;21033;-70
2021/01/14 00:20:31;;;;;;;24.43;14.73;;;;;;;-3.04;93.13;98467.83;1728465;82;21591;-71
2021/01/14 00:22:58;;;;;;;25.68;15.80;;;;;;;-3.07;93.16;98460.20;1721148;82;20980;-72
2021/01/14 00:25:25;;;;;;;26.33;16.70;;;;;;;-3.07;93.19;98462.76;1732364;82;21139;-72
2021/01/14 00:27:52;;;;;;;29.50;18.75;;;;;;;-3.06;93.21;98464.88;1728370;82;21202;-71
2021/01/14 00:30:29;;;;;;;29.02;19.48;;;;;;;-3.07;93.23;98467.87;1726748;82;21041;-73
2021/01/14 00:32:59;;;;;;;32.33;20.77;;;;;;;-3.02;93.34;98473.77;1721587;82;21256;-70
2021/01/14 00:35:27;;;;;;;33.35;21.40;;;;;;;-2.98;93.33;98468.17;1731404;82;21041;-71
2021/01/14 00:37:55;;;;;;;32.88;19.42;;;;;;;-2.96;93.38;98471.13;1724139;82;21173;-71
2021/01/14 00:40:28;;;;;;;35.85;21.80;;;;;;;-2.97;93.15;98471.13;1740163;80;21217;-69
2021/01/14 00:43:08;;;;;;;34.18;19.77;;;;;;;-3.02;93.04;98480.16;1720240;82;21210;-72
2021/01/14 00:45:36;;;;;;;33.50;20.85;;;;;;;-3.10;92.82;98485.78;1746114;80;21041;-68
2021/01/14 00:48:04;;;;;;;28.60;17.75;;;;;;;-3.19;92.95;98483.34;1723032;82;21232;-72
2021/01/14 00:50:31;;;;;;;24.23;16.95;;;;;;;-3.26;92.99;98488.94;1736692;82;21658;-72
2021/01/14 00:52:59;;;;;;;27.60;16.40;;;;;;;-3.33;92.90;98494.12;1730720;81;21212;-69
2021/01/14 00:55:27;;;;;;;26.10;15.30;;;;;;;-3.42;92.92;98499.77;1732094;81;21230;-72
2021/01/14 00:57:54;;;;;;;26.35;14.60;;;;;;;-3.50;92.95;98501.55;1729896;82;21152;-70
2021/01/14 01:00:23;;;;;;;35.78;18.75;;;;;;;-3.54;93.11;98501.59;1729059;82;21092;-68
2021/01/14 01:02:53;;;;;;;29.75;19.23;;;;;;;-3.59;93.09;98504.17;1736528;82;21131;-69
2021/01/14 01:05:21;;;;;;;32.30;19.45;;;;;;;-3.55;93.50;98510.95;1731241;80;21709;-71
2021/01/14 01:10:34;;;;;;;37.20;19.20;;;;;;;-3.33;93.85;98506.48;1879088;75;22384;-68
2021/01/14 01:13:01;;;;;;;32.70;18.17;;;;;;;-3.30;93.76;98510.70;1835293;77;21017;-71
2021/01/14 01:15:28;;;;;;;32.95;19.02;;;;;;;-3.22;93.87;98516.54;1827255;77;21194;-68
2021/01/14 01:17:56;;;;;;;34.10;18.32;;;;;;;-3.16;93.73;98519.05;1858731;76;21103;-71
2021/01/14 01:20:26;;;;;;;26.75;17.70;;;;;;;-3.16;93.42;98519.05;1852287;76;21024;-71
2021/01/14 01:22:57;;;;;;;32.48;19.00;;;;;;;-3.16;93.33;98518.61;1853093;77;21543;-70
2021/01/14 01:25:25;;;;;;;30.62;20.02;;;;;;;-3.13;93.28;98526.67;1842114;77;20997;-69
2021/01/14 01:27:52;;;;;;;31.30;18.77;;;;;;;-3.13;93.19;98526.67;1842936;77;21196;-71
2021/01/14 01:30:20;;;;;;;38.95;23.30;;;;;;;-3.13;93.22;98530.94;1855479;76;21554;-72
2021/01/14 01:32:47;;;;;;;;;;;;;;;-3.12;93.19;98528.35;1841574;76;21602;-69
2021/01/14 01:35:14;;;;;;;33.60;19.17;;;;;;;-3.14;93.07;98537.73;1813559;77;20225;-71
2021/01/14 01:37:41;;;;;;;26.27;16.67;;;;;;;-3.27;92.53;98538.75;1860147;77;21055;-71
2021/01/14 01:42:55;;;;;;;31.70;17.73;;;;;;;-3.27;93.21;98539.59;1831640;76;22710;-68
2021/01/14 01:45:22;;;;;;;36.05;20.85;;;;;;;-3.35;93.15;98540.53;1812151;78;21567;-71
2021/01/14 01:47:50;;;;;;;38.13;21.37;;;;;;;-3.37;93.21;98547.75;1812026;78;21646;-71
2021/01/14 01:50:18;;;;;;;;;;;;;;;-3.31;93.43;98551.11;1803842;78;20996;-70
2021/01/14 01:52:48;;;;;;;34.67;19.05;;;;;;;-3.27;93.37;98547.69;1803137;78;20160;-72
2021/01/14 01:55:18;;;;;;;34.30;19.35;;;;;;;-3.29;93.31;98550.67;1761238;80;21072;-68
2021/01/14 01:57:45;;;;;;;37.05;22.42;;;;;;;-3.38;92.95;98558.00;1771710;80;21040;-69
2021/01/14 02:00:13;;;;;;;44.45;24.02;;;;;;;-3.49;92.91;98549.16;1740204;80;21206;-69
2021/01/14 02:02:40;;;;;;;58.78;30.90;;;;;;;-3.52;93.09;98551.75;1748363;81;21638;-69
2021/01/14 02:05:10;;;;;;;58.25;28.57;;;;;;;-3.53;93.08;98555.14;1748835;81;21023;-70
2021/01/14 02:08:02;;;;;;;50.52;26.45;;;;;;;-3.53;93.07;98550.47;1755508;79;21021;-72
2021/01/14 02:10:54;;;;;;;62.25;30.23;;;;;;;-3.57;92.89;98566.25;1736831;81;21156;-69
2021/01/14 02:13:34;;;;;;;53.73;29.02;;;;;;;-3.56;93.23;98564.10;1740636;81;21205;-71
2021/01/14 02:16:03;;;;;;;36.63;21.95;;;;;;;-3.55;93.20;98572.19;1737488;81;21539;-71
2021/01/14 02:18:32;;;;;;;33.25;19.35;;;;;;;-3.55;93.32;98579.84;1760134;79;21001;-72
2021/01/14 02:21:03;;;;;;;32.45;18.87;;;;;;;-3.59;93.13;98576.89;1746459;79;21056;-71
2021/01/14 02:24:16;;;;;;;32.40;18.50;;;;;;;-3.61;93.21;98575.64;1755188;79;21019;-70
2021/01/14 02:26:44;;;;;;;35.10;19.85;;;;;;;-3.61;93.32;98582.45;1734077;81;21269;-70
2021/01/14 02:29:11;;;;;;;;;;;;;;;-3.55;93.50;98587.50;1741223;81;21114;-70
2021/01/14 02:31:37;;;;;;;38.90;19.77;;;;;;;-3.59;93.18;98589.64;1734344;81;20495;-69
2021/01/14 02:34:04;;;;;;;37.30;19.75;;;;;;;-3.62;93.17;98590.52;1738591;80;21045;-71
2021/01/14 02:36:31;;;;;;;35.28;21.80;;;;;;;-3.59;93.36;98593.47;1742695;79;21155;-73
2021/01/14 02:38:58;;;;;;;40.17;20.48;;;;;;;-3.58;93.29;98595.19;1746254;81;21153;-71
2021/01/14 02:41:25;;;;;;;35.73;20.90;;;;;;;-3.58;93.14;98602.84;1754526;80;21013;-70
2021/01/14 02:43:53;;;;;;;39.25;21.33;;;;;;;-3.60;93.11;98605.83;1772316;80;21288;-72
2021/01/14 02:46:20;;;;;;;38.28;22.15;;;;;;;-3.60;93.11;98611.77;1739143;81;21589;-73
2021/01/14 02:48:59;;;;;;;35.95;21.73;;;;;;;-3.69;92.78;98617.39;1736219;81;21251;-71
2021/01/14 02:51:40;;;;;;;43.42;24.77;;;;;;;-3.76;92.63;98621.67;1747659;81;21574;-70
2021/01/14 02:54:10;;;;;;;37.80;23.67;;;;;;;-3.91;92.37;98616.26;1752220;81;21038;-72
2021/01/14 02:56:38;;;;;;;41.48;24.27;;;;;;;-3.86;92.93;98626.01;1730565;81;21053;-69
2021/01/14 02:59:05;;;;;;;39.08;22.42;;;;;;;-3.75;93.20;98625.06;1749721;81;21190;-72
2021/01/14 03:01:33;;;;;;;;;;;;;;;-3.73;92.97;98629.73;1732402;81;21583;-73
2021/01/14 03:04:01;;;;;;;40.33;22.73;;;;;;;-3.76;92.84;98628.48;1750165;81;21411;-72
2021/01/14 03:06:28;;;;;;;36.80;20.92;;;;;;;-3.71;93.15;98644.61;1754364;81;21036;-72
2021/01/14 03:08:56;;;;;;;35.58;22.02;;;;;;;-3.71;93.02;98638.23;1738312;80;21205;-72
2021/01/14 03:11:28;;;;;;;35.58;22.50;;;;;;;-3.63;93.46;98645.40;1733723;81;21020;-70
2021/01/14 03:13:56;;;;;;;38.53;23.38;;;;;;;-3.51;93.77;98645.30;1735710;81;21006;-72
2021/01/14 03:16:24;;;;;;;40.80;23.38;;;;;;;-3.40;93.74;98649.88;1761314;80;21203;-73
2021/01/14 03:18:52;;;;;;;44.05;24.15;;;;;;;-3.30;93.79;98646.00;1769775;78;21016;-71
2021/01/14 03:21:24;;;;;;;41.85;23.95;;;;;;;-3.19;93.97;98642.91;1776384;79;21150;-71
2021/01/14 03:23:53;;;;;;;45.45;22.60;;;;;;;-3.10;93.91;98646.65;1764601;78;21577;-69
2021/01/14 03:26:21;;;;;;;40.48;23.62;;;;;;;-3.00;93.84;98644.41;1780313;80;21757;-69
2021/01/14 03:28:50;;;;;;;42.00;23.70;;;;;;;-2.95;93.78;98647.77;1791287;78;21212;-69
2021/01/14 03:31:18;;;;;;;43.90;23.83;;;;;;;-2.92;93.54;98655.39;1762171;80;21000;-70
2021/01/14 03:33:46;;;;;;;37.93;21.93;;;;;;;-2.87;93.48;98657.06;1772064;80;21181;-70
2021/01/14 03:36:20;;;;;;;47.65;24.80;;;;;;;-2.79;93.61;98653.56;1750476;80;21154;-68
2021/01/14 03:38:48;;;;;;;43.02;24.30;;;;;;;-2.70;93.70;98666.67;1749791;80;21004;-71
2021/01/14 03:41:18;;;;;;;41.10;23.30;;;;;;;-2.62;93.79;98669.99;1758012;80;21217;-72
2021/01/14 03:43:46;;;;;;;42.40;24.72;;;;;;;-2.54;93.75;98670.76;1748732;80;21078;-70
2021/01/14 03:46:20;;;;;;;38.75;23.15;;;;;;;-2.48;93.70;98674.52;1738703;81;21031;-71
2021/01/14 03:48:48;;;;;;;47.25;25.60;;;;;;;-2.47;93.55;98681.30;1755645;81;21025;-73
2021/01/14 03:51:21;;;;;;;38.88;23.18;;;;;;;-2.45;93.55;98684.30;1745778;81;21021;-70
2021/01/14 03:53:51;;;;;;;26.45;16.95;;;;;;;-2.45;93.50;98690.69;1739233;81;21943;-70
2021/01/14 03:56:19;;;;;;;40.00;20.25;;;;;;;-2.47;93.53;98691.97;1743745;81;21173;-72
2021/01/14 03:58:46;;;;;;;;;;;;;;;-2.49;93.58;98693.28;1746483;81;21060;-70
2021/01/14 04:01:13;;;;;;;36.35;21.40;;;;;;;-2.48;93.66;98689.85;1751527;81;20496;-73
2021/01/14 04:03:44;;;;;;;37.05;22.25;;;;;;;-2.44;93.77;98688.53;1744140;79;21068;-69
2021/01/14 04:06:11;;;;;;;39.38;24.02;;;;;;;-2.35;93.94;98690.98;1758837;81;21211;-70
2021/01/14 04:08:39;;;;;;;45.15;26.10;;;;;;;-2.26;93.98;98689.61;1744262;81;28057;-71
2021/01/14 04:11:11;;;;;;;47.78;25.00;;;;;;;-2.19;93.90;98693.77;1741127;81;21626;-69
2021/01/14 04:13:38;;;;;;;38.38;24.07;;;;;;;-2.15;93.73;98699.27;1736071;81;21193;-69
2021/01/14 04:16:05;;;;;;;42.08;24.92;;;;;;;-2.13;93.65;98695.00;1740154;80;21147;-68
2021/01/14 04:18:32;;;;;;;38.75;24.32;;;;;;;-2.14;93.41;98703.52;1732952;81;22187;-70
2021/01/14 04:20:59;;;;;;;40.67;24.27;;;;;;;-2.14;93.44;98699.67;1734263;81;21231;-70
2021/01/14 04:23:27;;;;;;;41.20;26.00;;;;;;;-2.12;93.37;98709.47;1736292;81;20994;-71
2021/01/14 04:25:56;;;;;;;42.23;24.67;;;;;;;-2.20;93.15;98713.83;1764053;81;21554;-69
2021/01/14 04:28:22;;;;;;;43.45;24.12;;;;;;;-2.27;93.31;98710.91;1757956;79;22283;-69
2021/01/14 04:30:49;;;;;;;38.15;23.18;;;;;;;-2.35;93.40;98717.41;1732381;82;21234;-70
2021/01/14 04:33:16;;;;;;;39.83;24.23;;;;;;;-2.37;93.53;98718.30;1749851;81;21549;-70
2021/01/14 04:35:55;;;;;;;38.08;23.22;;;;;;;-2.39;93.59;98720.02;1738239;81;24510;-70
2021/01/14 04:38:25;;;;;;;42.23;24.63;;;;;;;-2.34;93.74;98720.81;1736949;81;21583;-72
2021/01/14 04:41:04;;;;;;;41.95;26.75;;;;;;;-2.32;93.78;98721.65;1748465;80;21625;-69
2021/01/14 04:43:34;;;;;;;41.08;23.62;;;;;;;-2.29;93.80;98728.00;1775600;80;21214;-71
2021/01/14 04:46:07;;;;;;;41.45;23.98;;;;;;;-2.26;93.82;98731.80;1761914;80;22347;-71
2021/01/14 04:48:47;;;;;;;42.90;25.80;;;;;;;-2.24;93.78;98727.52;1758989;80;21115;-72
2021/01/14 04:51:19;;;;;;;38.38;22.17;;;;;;;-2.18;93.89;98737.67;1772824;80;21237;-70
2021/01/14 04:53:50;;;;;;;44.00;25.17;;;;;;;-2.13;93.87;98738.47;1728917;81;21197;-73
2021/01/14 04:56:19;;;;;;;38.40;23.02;;;;;;;-2.14;93.75;98729.09;1733947;81;21168;-72
2021/01/14 04:58:48;;;;;;;42.75;25.45;;;;;;;-2.11;93.86;98730.33;1732612;80;21339;-69
2021/01/14 05:01:23;;;;;;;43.65;24.65;;;;;;;-2.03;94.05;98727.24;1726313;81;21093;-71
2021/01/14 05:03:52;;;;;;;38.17;18.07;;;;;;;-1.97;93.96;98730.59;1745498;81;21161;-69
2021/01/14 05:06:25;;;;;;;39.73;19.10;;;;;;;-1.99;93.76;98734.88;1727501;80;21231;-73
2021/01/14 05:09:06;;;;;;;34.38;17.62;;;;;;;-2.03;93.65;98743.87;1744718;81;21435;-72
2021/01/14 05:11:45;;;;;;;42.70;18.45;;;;;;;-2.06;93.64;98742.63;1730571;81;21579;-71
2021/01/14 05:14:12;;;;;;;64.05;18.25;;;;;;;-2.07;93.62;98743.51;1730737;81;21548;-70
2021/01/14 05:16:39;;;;;;;35.23;14.65;;;;;;;-2.08;93.67;98740.52;1731957;80;21132;-71
2021/01/14 05:19:06;;;;;;;23.45;14.05;;;;;;;-2.09;93.60;98747.79;1732797;81;21575;-70
2021/01/14 05:21:34;;;;;;;30.68;14.13;;;;;;;-2.13;93.48;98746.14;1750452;81;21215;-70
2021/01/14 05:26:49;;;;;;;55.00;13.47;;;;;;;-2.20;93.55;98752.19;1766132;79;27994;-71
2021/01/14 05:29:19;;;;;;;54.10;14.95;;;;;;;-2.22;93.44;98753.91;1732832;81;21622;-72
2021/01/14 05:31:49;;;;;;;17.35;11.73;;;;;;;-2.23;93.35;98759.89;1756419;81;21224;-71
2021/01/14 05:34:18;;;;;;;31.12;12.93;;;;;;;-2.27;93.41;98760.77;1758976;81;21131;-72
2021/01/14 05:37:05;;;;;;;26.77;11.40;;;;;;;-2.32;93.45;98766.39;1768478;79;20992;-71
2021/01/14 05:39:43;;;;;;;26.40;11.93;;;;;;;-2.35;93.49;98767.67;1744472;81;21005;-71
2021/01/14 05:42:12;;;;;;;17.60;10.93;;;;;;;-2.42;93.53;98778.41;1752539;81;20993;-72
2021/01/14 05:44:44;;;;;;;19.75;11.00;;;;;;;-2.48;93.66;98784.42;1752715;80;21214;-69
2021/01/14 05:47:27;;;;;;;17.12;11.55;;;;;;;-2.51;93.75;98790.85;1742596;80;21032;-70
2021/01/14 05:50:00;;;;;;;22.65;11.10;;;;;;;-2.54;93.88;98793.44;1752001;81;21056;-70
2021/01/14 05:52:30;;;;;;;17.42;10.50;;;;;;;-2.54;94.02;98803.66;1740795;81;21111;-71
2021/01/14 05:55:08;;;;;;;19.17;11.80;;;;;;;-2.55;94.15;98805.81;1747353;80;21099;-70
2021/01/14 05:57:40;;;;;;;20.70;12.78;;;;;;;-2.54;94.22;98804.94;1768745;80;21200;-69
2021/01/14 06:00:13;;;;;;;23.55;14.65;;;;;;;-2.54;94.29;98811.33;1739680;80;21550;-72
2021/01/14 06:02:41;;;;;;;29.12;15.98;;;;;;;-2.52;94.32;98809.62;1747703;80;21229;-71
2021/01/14 06:05:33;;;;;;;27.27;16.93;;;;;;;-2.52;94.37;98813.45;1729337;80;21630;-69
2021/01/14 06:08:02;;;;;;;56.77;20.77;;;;;;;-2.50;94.37;98814.27;1745019;81;21171;-71
2021/01/14 06:10:34;;;;;;;31.37;18.62;;;;;;;-2.49;94.34;98819.81;1728690;81;22073;-72
2021/01/14 06:13:01;;;;;;;33.02;18.07;;;;;;;-2.44;94.34;98821.46;1739187;81;21195;-73
2021/01/14 06:15:28;;;;;;;32.25;18.25;;;;;;;-2.42;94.33;98827.42;1750703;80;21132;-72
2021/01/14 06:17:59;;;;;;;26.85;17.62;;;;;;;-2.40;94.31;98828.26;1732314;80;21757;-71
2021/01/14 06:20:27;;;;;;;29.85;17.35;;;;;;;-2.37;94.45;98835.89;1747992;81;21234;-69
2021/01/14 06:22:58;;;;;;;37.33;21.15;;;;;;;-2.38;94.30;98833.77;1751354;81;21214;-70
2021/01/14 06:25:26;;;;;;;33.58;21.85;;;;;;;-2.38;94.33;98849.52;1744090;80;21134;-72
2021/01/14 06:27:55;;;;;;;42.83;25.50;;;;;;;-2.41;94.36;98849.55;1761841;81;20965;-70
2021/01/14 06:30:23;;;;;;;42.65;25.05;;;;;;;-2.41;94.34;98858.50;1761500;81;21092;-73
2021/01/14 06:33:02;;;;;;;;;;;;;;;-2.39;94.44;98858.06;1756415;81;21147;-70
2021/01/14 06:35:30;;;;;;;49.90;27.13;;;;;;;-2.36;94.49;98863.14;1773267;80;21273;-72
2021/01/14 06:38:02;;;;;;;46.50;27.48;;;;;;;-2.35;94.51;98869.94;1747503;79;21271;-70
2021/01/14 06:40:29;;;;;;;44.38;26.65;;;;;;;-2.33;94.62;98876.73;1746066;81;21084;-69
2021/01/14 06:42:58;;;;;;;52.70;26.87;;;;;;;-2.29;94.58;98882.70;1759105;81;21117;-71
2021/01/14 06:45:31;;;;;;;47.08;27.22;;;;;;;-2.25;94.68;98879.23;1741523;80;21199;-70
2021/01/14 06:48:08;;;;;;;42.45;26.23;;;;;;;-2.23;94.63;98887.75;1755161;81;21209;-71
2021/01/14 06:50:38;;;;;;;;;;;;;;;-2.19;94.59;98891.96;1755858;81;21049;-72
2021/01/14 06:53:19;;;;;;;45.80;23.57;;;;;;;-2.15;94.54;98906.44;1755494;81;20572;-71
2021/01/14 06:55:48;;;;;;;36.60;20.37;;;;;;;-2.09;94.60;98903.81;1726472;81;22354;-70
2021/01/14 06:58:16;;;;;;;30.95;17.45;;;;;;;-2.04;94.62;98914.86;1724699;82;21166;-70
2021/01/14 07:00:50;;;;;;;33.48;18.73;;;;;;;-1.97;94.61;98914.36;1727133;81;21220;-70
2021/01/14 07:03:20;;;;;;;28.27;18.20;;;;;;;-1.91;94.57;98917.28;1728621;82;21037;-71
2021/01/14 07:05:58;;;;;;;25.52;16.37;;;;;;;-1.87;94.45;98922.80;1743784;81;21041;-69
2021/01/14 07:09:04;;;;;;;27.37;16.37;;;;;;;-1.80;94.45;98933.37;1729846;82;21228;-70
2021/01/14 07:11:34;;;;;;;26.55;15.90;;;;;;;-1.72;94.50;98936.71;1713264;82;21178;-72
2021/01/14 07:14:12;;;;;;;20.05;13.43;;;;;;;-1.67;94.40;98940.08;1701492;82;21223;-72
2021/01/14 07:16:43;;;;;;;22.52;13.40;;;;;;;-1.61;94.37;98945.56;1734009;81;21051;-69
2021/01/14 07:19:10;;;;;;;21.95;13.62;;;;;;;-1.56;94.37;98951.92;1712406;82;21020;-70
2021/01/14 07:21:44;;;;;;;21.90;14.90;;;;;;;-1.51;94.31;98950.14;1723646;82;21238;-71
2021/01/14 07:24:24;;;;;;;22.27;14.15;;;;;;;-1.46;94.31;98958.63;1724311;82;21182;-71
2021/01/14 07:27:01;;;;;;;25.90;16.57;;;;;;;-1.46;94.10;98962.46;1703171;83;21220;-73
2021/01/14 07:29:29;;;;;;;22.73;14.17;;;;;;;-1.44;94.11;98969.70;1713601;83;21092;-69
2021/01/14 07:31:59;;;;;;;23.80;14.07;;;;;;;-1.43;94.05;98968.83;1724846;81;20984;-70
2021/01/14 07:34:38;;;;;;;23.00;13.88;;;;;;;-1.43;94.06;98980.35;1722155;81;20996;-69
2021/01/14 07:37:15;;;;;;;24.45;15.75;;;;;;;-1.42;94.09;98988.47;1725540;81;21012;-69
2021/01/14 07:39:58;;;;;;;34.75;21.37;;;;;;;-1.38;94.06;98995.23;1829614;77;22767;-74
2021/01/14 07:42:34;;;;;;;32.53;19.12;;;;;;;-1.43;94.00;98999.55;1793166;79;20965;-70
2021/01/14 07:45:08;;;;;;;29.67;18.77;;;;;;;-1.47;93.94;98994.06;1789556;79;21201;-69
2021/01/14 07:47:38;;;;;;;37.05;22.15;;;;;;;-1.50;93.91;99005.63;1794359;79;21074;-70
2021/01/14 07:50:26;;;;;;;31.07;19.80;;;;;;;-1.55;93.94;99003.53;1797480;77;21685;-72
2021/01/14 07:52:58;;;;;;;33.33;20.60;;;;;;;-1.59;94.04;99017.64;1792831;79;20953;-72
2021/01/14 07:55:32;;;;;;;37.58;23.75;;;;;;;-1.62;94.05;99017.67;1797273;78;21633;-72
2021/01/14 07:58:21;;;;;;;47.60;27.15;;;;;;;-1.64;94.14;99023.23;1799128;79;21204;-69
2021/01/14 08:01:09;;;;;;;39.23;25.17;;;;;;;-1.65;94.14;99034.34;1795568;77;21024;-71
2021/01/14 08:03:43;;;;;;;56.48;36.10;;;;;;;-1.67;94.15;99036.50;1805803;78;21594;-71
2021/01/14 08:06:24;;;;;;;47.43;29.23;;;;;;;-1.68;94.20;99045.89;1793668;79;21120;-71
2021/01/14 08:09:06;;;;;;;43.55;27.73;;;;;;;-1.64;94.26;99043.71;1797354;79;21685;-71
2021/01/14 08:11:35;;;;;;;50.83;30.88;;;;;;;-1.62;94.21;99048.39;1789592;79;21264;-73
2021/01/14 08:14:22;;;;;;;48.78;30.62;;;;;;;-1.61;94.19;99051.36;1791687;77;20937;-72
2021/01/14 08:16:54;;;;;;;49.13;27.93;;;;;;;-1.60;94.14;99058.20;1787862;79;21040;-72
2021/01/14 08:19:36;;;;;;;43.10;27.98;;;;;;;-1.56;94.28;99059.45;1803034;77;21087;-73
2021/01/14 08:22:10;;;;;;;47.15;27.87;;;;;;;-1.54;94.20;99063.70;1799440;79;21017;-72
2021/01/14 08:24:55;;;;;;;44.05;28.27;;;;;;;-1.52;94.20;99067.07;1794211;78;21270;-74
2021/01/14 08:27:36;;;;;;;41.20;27.48;;;;;;;-1.48;94.23;99072.59;1732250;80;21147;-72
2021/01/14 08:30:20;;;;;;;48.30;30.50;;;;;;;-1.48;94.20;99079.44;1728476;82;21619;-73
2021/01/14 08:33:01;;;;;;;46.48;29.18;;;;;;;-1.44;94.20;99086.21;1731979;82;21453;-70
2021/01/14 08:35:31;;;;;;;51.90;32.75;;;;;;;-1.43;94.13;99091.73;1731663;80;21215;-73
2021/01/14 08:38:12;;;;;;;56.08;37.00;;;;;;;-1.44;94.10;99097.73;1727352;80;22170;-68
2021/01/14 08:40:41;;;;;;;75.75;49.03;;;;;;;-1.47;94.09;99102.89;1724764;82;21175;-72
2021/01/14 08:43:13;;;;;;;67.08;41.20;;;;;;;-1.45;94.15;99106.29;1725635;82;21057;-70
2021/01/14 08:45:48;;;;;;;33.67;21.48;;;;;;;-1.44;94.17;99120.78;1733817;81;21116;-69
2021/01/14 08:48:30;;;;;;;30.85;20.48;;;;;;;-1.36;94.37;99124.97;1726993;82;21186;-71
2021/01/14 08:51:01;;;;;;;32.65;21.12;;;;;;;-1.23;94.36;99125.73;1725666;80;21202;-70
2021/01/14 08:53:37;;;;;;;29.37;19.25;;;;;;;-1.11;94.42;99132.87;1721947;82;21049;-71
2021/01/14 08:56:11;;;;;;;27.40;17.82;;;;;;;-1.02;94.44;99131.50;1723818;82;21280;-71
2021/01/14 08:58:46;;;;;;;23.22;17.52;;;;;;;-0.92;94.37;99139.52;1724009;82;21172;-71
2021/01/14 09:03:59;;;;;;;21.97;16.93;;;;;;;-0.77;94.13;99141.06;1811137;76;29034;-69
2021/01/14 09:06:42;;;;;;;22.58;16.00;;;;;;;-0.73;94.00;99150.00;1800384;77;21028;-68
2021/01/14 09:09:16;;;;;;;25.75;16.35;;;;;;;-0.68;93.91;99154.63;1803391;77;21235;-69
2021/01/14 09:11:46;;;;;;;23.75;16.02;;;;;;;-0.60;93.95;99157.55;1805101;78;21081;-68
2021/01/14 09:14:16;;;;;;;23.73;16.27;;;;;;;-0.57;93.83;99166.48;1801051;78;21012;-71
2021/01/14 09:16:45;;;;;;;22.85;16.77;;;;;;;-0.51;93.95;99170.26;1794720;77;21098;-67
2021/01/14 09:19:21;;;;;;;20.37;15.23;;;;;;;-0.44;93.95;99171.90;1798249;78;21526;-69
2021/01/14 09:21:48;;;;;;;20.55;14.28;;;;;;;-0.39;93.90;99173.98;1797978;78;21201;-71
2021/01/14 09:24:18;;;;;;;18.75;13.95;;;;;;;-0.33;93.84;99180.31;1798640;78;20996;-72
2021/01/14 09:26:51;;;;;;;17.45;12.82;;;;;;;-0.32;93.74;99183.28;1801671;77;20945;-68
2021/01/14 09:29:20;;;;;;;19.52;13.53;;;;;;;-0.33;93.70;99182.04;1793209;77;21063;-70
2021/01/14 09:31:47;;;;;;;17.77;13.75;;;;;;;-0.37;93.69;99194.03;1796642;78;21073;-70
2021/01/14 09:34:14;;;;;;;17.17;12.88;;;;;;;-0.41;93.69;99190.25;1800856;78;21192;-70
2021/01/14 09:36:42;;;;;;;18.35;13.72;;;;;;;-0.45;93.75;99195.83;1792089;78;21139;-70
2021/01/14 09:39:15;;;;;;;18.57;13.48;;;;;;;-0.51;93.65;99195.91;1791203;78;20984;-70
2021/01/14 09:41:42;;;;;;;19.20;13.22;;;;;;;-0.49;93.84;99196.74;1792949;78;21684;-71
2021/01/14 09:44:13;;;;;;;17.40;12.90;;;;;;;-0.50;93.89;99189.93;1796625;78;21126;-72
2021/01/14 09:46:46;;;;;;;17.00;12.75;;;;;;;-0.50;93.89;99189.93;1795076;78;21268;-67
2021/01/14 09:49:21;;;;;;;16.80;12.73;;;;;;;-0.40;93.81;99214.59;1804721;77;21008;-70
2021/01/14 09:51:53;;;;;;;17.70;11.68;;;;;;;-0.42;93.73;99232.14;1798944;77;21127;-69
2021/01/14 09:54:22;;;;;;;18.32;13.03;;;;;;;-0.47;93.69;99226.64;1795424;77;21229;-72
2021/01/14 09:57:07;;;;;;;18.50;12.98;;;;;;;-0.48;93.74;99227.92;1803983;78;21601;-69
2021/01/14 09:59:46;;;;;;;17.15;13.13;;;;;;;-0.47;93.73;99231.77;1800443;78;21537;-72
2021/01/14 10:02:34;;;;;;;16.30;12.40;;;;;;;-0.40;93.81;99237.67;1822955;76;22875;-69
2021/01/14 10:05:13;;;;;;;16.37;12.28;;;;;;;-0.44;93.75;99239.02;1797811;78;21051;-70
2021/01/14 10:07:50;;;;;;;16.60;12.13;;;;;;;-0.44;93.63;99246.28;1807442;77;21206;-68
2021/01/14 10:10:18;;;;;;;16.45;11.43;;;;;;;-0.46;93.51;99251.84;1808272;77;21538;-69
2021/01/14 10:12:55;;;;;;;17.30;12.10;;;;;;;-0.47;93.58;99256.58;1800851;78;21937;-70
2021/01/14 10:15:33;;;;;;;17.62;12.20;;;;;;;-0.42;93.75;99266.36;1803146;78;20964;-70
2021/01/14 10:18:13;;;;;;;17.12;11.68;;;;;;;-0.43;93.33;99258.23;1801934;78;21526;-76
2021/01/14 10:21:07;;;;;;;14.45;11.15;;;;;;;-0.48;93.37;99262.55;1817208;77;21028;-73
2021/01/14 10:23:42;;;;;;;16.23;11.57;;;;;;;-0.50;93.33;99262.58;1810390;78;21004;-69
2021/01/14 10:26:08;;;;;;;18.37;11.57;;;;;;;-0.53;93.35;99266.90;1816139;77;20969;-70
2021/01/14 10:28:45;;;;;;;16.40;11.95;;;;;;;-0.54;93.37;99270.30;1808815;77;21047;-70
2021/01/14 10:31:33;;;;;;;17.27;11.55;;;;;;;-0.56;93.27;99275.88;1806935;77;26791;-65
2021/01/14 10:34:00;;;;;;;19.90;12.65;;;;;;;-0.59;93.31;99281.88;1809178;77;22166;-66
2021/01/14 10:36:49;;;;;;;18.27;12.80;;;;;;;-0.59;93.35;99275.91;1809020;78;21042;-65
2021/01/14 10:39:17;;;;;;;15.32;11.40;;;;;;;-0.62;93.20;99291.33;1806711;78;21648;-65
2021/01/14 10:41:46;;;;;;;15.90;11.45;;;;;;;-0.71;92.78;99282.84;1811629;77;21064;-65
2021/01/14 10:44:13;;;;;;;19.75;11.70;;;;;;;-0.76;93.12;99285.03;1807797;77;21119;-66
2021/01/14 10:46:42;;;;;;;18.48;13.55;;;;;;;-0.84;93.03;99288.96;1740494;80;21217;-65
2021/01/14 10:49:12;;;;;;;19.10;11.78;;;;;;;-0.84;93.31;99292.80;1750594;81;21147;-65
2021/01/14 10:51:40;;;;;;;18.50;11.63;;;;;;;-0.81;93.27;99299.19;1773369;79;21151;-66
2021/01/14 10:54:09;;;;;;;17.60;13.32;;;;;;;-0.87;92.85;99301.77;1764921;79;21136;-66
2021/01/14 10:56:53;;;;;;;18.77;12.60;;;;;;;-0.89;93.17;99306.08;1735721;81;21548;-66
2021/01/14 10:59:26;;;;;;;15.58;10.95;;;;;;;-0.86;93.25;99302.21;1740393;80;21606;-66
2021/01/14 11:02:05;;;;;;;17.65;11.68;;;;;;;-0.84;93.24;99310.75;1739555;81;20990;-66
2021/01/14 11:04:45;;;;;;;18.10;11.53;;;;;;;-0.81;93.18;99303.03;1831476;77;22877;-66
2021/01/14 11:07:13;;;;;;;14.85;10.40;;;;;;;-0.85;93.11;99311.59;1796306;79;21029;-69
2021/01/14 11:09:53;;;;;;;12.28;8.78;;;;;;;-0.86;93.07;99311.62;1796212;77;21523;-66
2021/01/14 11:12:20;;;;;;;11.85;9.40;;;;;;;-0.87;92.99;99316.30;1788876;77;21017;-67
2021/01/14 11:14:48;;;;;;;14.43;9.90;;;;;;;-0.85;93.15;99314.16;1725007;82;20996;-64
2021/01/14 11:17:15;;;;;;;12.63;8.98;;;;;;;-0.81;93.14;99317.13;1749193;79;21574;-65
2021/01/14 11:19:42;;;;;;;10.20;8.15;;;;;;;-0.89;92.20;99333.00;1733138;80;21590;-68
2021/01/14 11:22:09;;;;;;;14.95;8.60;;;;;;;-1.00;91.73;99325.38;1723603;82;21211;-67
2021/01/14 11:24:39;;;;;;;12.00;8.43;;;;;;;-0.97;92.73;99327.07;1731014;81;21033;-65
2021/01/14 11:27:06;;;;;;;10.13;8.23;;;;;;;-0.91;92.89;99324.45;1726398;82;21021;-65
2021/01/14 11:29:33;;;;;;;11.25;8.68;;;;;;;-0.84;92.76;99329.97;1736606;82;21136;-65
2021/01/14 11:32:01;;;;;;;12.43;8.70;;;;;;;-0.89;92.10;99335.56;1732220;80;21120;-64
2021/01/14 11:34:28;;;;;;;11.33;8.75;;;;;;;-0.86;92.76;99327.00;1731059;82;21641;-66
2021/01/14 11:36:57;;;;;;;14.70;9.20;;;;;;;-0.81;92.85;99335.48;1727095;82;21274;-66
2021/01/14 11:39:26;;;;;;;15.43;9.13;;;;;;;-0.79;92.61;99328.20;1726782;82;21053;-68
2021/01/14 11:41:55;;;;;;;15.10;10.03;;;;;;;-0.79;92.28;99334.61;1733965;82;20974;-66
2021/01/14 11:44:22;;;;;;;9.98;7.85;;;;;;;-0.76;92.33;99339.71;1704315;82;21025;-65
2021/01/14 11:46:49;;;;;;;11.20;8.65;;;;;;;-0.75;92.37;99336.30;1732584;80;21646;-66
2021/01/14 11:49:16;;;;;;;10.32;7.62;;;;;;;-0.78;91.70;99349.15;1728045;81;21195;-65
2021/01/14 11:51:51;;;;;;;13.88;9.18;;;;;;;-0.79;92.31;99350.42;1730039;82;21072;-65